Terminal Aerodrome Forecast
Issued by NWS Upton, NY

Home | Current Version | Previous Version | Text Only | Print | Product List | Glossary On
Versions: 1 2 3 4 5 6 7 8 9 10 11 12 13 14 15 16 17 18 19 20 21 22 23 24 25 26 27 28 29
000
FTUS41 KOKX 250236 AAA
TAFJFK
TAF AMD
KJFK 250236Z 2503/2606 20013KT P6SM BKN250
     FM250400 21007KT P6SM BKN130
     FM251600 19011KT P6SM SCT130 BKN200
     FM251800 19018KT P6SM FEW050 BKN200
     FM252100 18023G30KT P6SM FEW050 BKN250
     FM260300 20015G22KT P6SM BKN250=

USA.gov is the U.S. government's official web portal to all federal, state and local government web resources and services.